Flight Track Log - Related Links

Times and Time Zones

All times are in EDT time to prevent confusion due to time zone crossing. See the EJA122 flight status page for this flight to view local times or setup timezone preferences in your user account.

Time Position Orientation Groundspeed Altitude Reporting Facility
EDT Latitude Longitude Course Direction KTS MPH feet Rate Location/Type
Mon 04:40:28 PM 37.7500 -122.2833 302° West 228 262 2,400  Level Northern Cal TRACON
Mon 04:41:28 PM 37.7833 -122.3500 302° West 226 260 6,100 3,000 Climbing Northern Cal TRACON
Mon 04:42:28 PM 37.7833 -122.4333 270° West 248 285 8,400 2,556 Climbing Northern Cal TRACON
Mon 04:44:10 PM 37.6722 -122.4506 187° South 255 293 13,000 2,650 Climbing Oakland Center
Mon 04:44:28 PM 37.6500 -122.4333 148° Southeast 262 302 13,700 1,279 Climbing Northern Cal TRACON
Mon 04:45:11 PM 37.6164 -122.3822 130° Southeast 286 329 14,300 1,269 Climbing Oakland Center
Mon 04:46:12 PM 37.5519 -122.2989 134° Southeast 327 376 15,900 1,820 Climbing Oakland Center
Mon 04:47:13 PM 37.5156 -122.1861 112° Southeast 358 412 18,000 1,525 Climbing Oakland Center
Mon 04:48:14 PM 37.4847 -122.0656 108° East 362 417 19,000 488 Climbing Oakland Center
Mon 04:49:16 PM 37.4500 -121.9281 108° East 412 474 19,000  Level Oakland Center
Mon 04:50:17 PM 37.4053 -121.7536 108° East 436 502 19,000  Level Oakland Center
Mon 04:51:18 PM 37.3675 -121.6078 108° East 440 506 19,000  Level Oakland Center
Mon 04:52:19 PM 37.3303 -121.4636 108° East 434 499 19,000  Level Oakland Center
Mon 04:53:21 PM 37.2936 -121.3217 108° East 430 495 19,000  Level Oakland Center
Mon 04:54:22 PM 37.2556 -121.1789 108° East 432 497 19,000  Level Oakland Center
Mon 04:55:23 PM 37.2181 -121.0406 109° East 424 488 19,000  Level Oakland Center
Mon 04:56:24 PM 37.1822 -120.9033 108° East 419 482 19,000  Level Oakland Center
Mon 04:57:26 PM 37.1461 -120.7667 108° East 415 478 19,000  Level Oakland Center
Mon 04:58:27 PM 37.1097 -120.6333 109° East 410 472 19,000 -984 Level Oakland Center
Mon 04:59:28 PM 37.0642 -120.4750 110° East 405 466 17,000 -1,951 Descending Oakland Center
Mon 05:00:30 PM 37.0306 -120.3458 108° East 394 453 15,000 -1,951 Descending Oakland Center
Mon 05:01:31 PM 36.9953 -120.2197 109° East 387 445 13,000 -1,869 Descending Oakland Center
Mon 05:02:32 PM 36.9639 -120.1069 109° East 389 448 11,200 -1,623 Descending Oakland Center
Mon 05:03:33 PM 36.9244 -119.9656 109° East 341 392 9,700 -1,854 Descending Oakland Center
Mon 05:04:35 PM 36.8978 -119.8661 109° East 307 353 7,400 -2,244 Descending Oakland Center
Mon 05:05:36 PM 36.8692 -119.7739 111° Southeast 286 329 5,100 -1,328 Descending Oakland Center
Mon 05:06:37 PM 36.8311 -119.6881 119° Southeast 284 327 4,700 -1,171 Descending Oakland Center
Mon 05:07:39 PM 36.7869 -119.6139 127° Southeast 268 308 2,700 -1,415 Descending Oakland Center
Mon 05:08:40 PM 36.7444 -119.6183 185° South 192 221 1,800 -689 Descending Oakland Center
Mon 05:09:41 PM 36.7461 -119.6661 273° West 148 170 1,300 -689 Descending Oakland Center
Mon 05:10:42 PM 36.7686 -119.7072 304° West 135 155 400 -885 Descending Oakland Center
Mon 05:12:00 PM 36.7667 -119.7167 270° West  Level FlightAware Approximate
Mon 05:19:00 PM 36.7764 -119.7187 270° West  Level Estimated

Login

Don't have an account? Register now (free) for customized features, flight alerts, and more!